Time;durP1;ratioP1;P1;durP2;ratioP2;P2;SDS_P1;SDS_P2;PMS_P1;PMS_P2;Temp;Humidity;BMP_temperature;BMP_pressure;BME280_temperature;BME280_humidity;BME280_pressure;Samples;Min_cycle;Max_cycle;Signal;HPM_P1;HPM_P2
2022/05/10 00:00:26;;;;;;;9.23;3.53;;;15.00;75.10;;;;;;5088525;28;20477;-37
2022/05/10 00:02:56;;;;;;;7.47;3.75;;;14.90;75.20;;;;;;5087756;28;20397;-37
2022/05/10 00:05:36;;;;;;;6.13;3.33;;;14.90;75.60;;;;;;5071550;28;20062;-37
2022/05/10 00:08:04;;;;;;;9.13;3.88;;;14.90;75.90;;;;;;5084023;28;20020;-37
2022/05/10 00:10:30;;;;;;;5.85;3.80;;;14.90;76.20;;;;;;5079857;28;20095;-37
2022/05/10 00:12:56;;;;;;;7.22;3.15;;;14.80;76.40;;;;;;5082917;28;20032;-37
2022/05/10 00:15:21;;;;;;;9.32;3.42;;;14.70;76.70;;;;;;5091895;28;20438;-37
2022/05/10 00:17:48;;;;;;;6.57;2.95;;;14.70;77.10;;;;;;5073150;28;20605;-37
2022/05/10 00:20:18;;;;;;;7.55;3.25;;;14.60;78.50;;;;;;5087201;28;20062;-37
2022/05/10 00:22:44;;;;;;;6.28;3.47;;;14.50;78.10;;;;;;5090820;28;20032;-37
2022/05/10 00:25:11;;;;;;;8.15;3.25;;;14.50;78.20;;;;;;5085964;28;20494;-37
2022/05/10 00:27:37;;;;;;;6.50;2.80;;;14.50;78.30;;;;;;5075768;28;20027;-37
2022/05/10 00:30:04;;;;;;;6.90;4.00;;;14.50;78.50;;;;;;5088923;28;20024;-37
2022/05/10 00:32:32;;;;;;;6.85;3.50;;;14.50;78.60;;;;;;5082211;28;20016;-37
2022/05/10 00:34:58;;;;;;;5.63;3.10;;;14.40;79.00;;;;;;5087928;28;20028;-37
2022/05/10 00:37:24;;;;;;;5.68;3.05;;;14.40;78.90;;;;;;5079240;28;20020;-37
2022/05/10 00:39:50;;;;;;;9.55;3.47;;;14.40;79.00;;;;;;5091343;28;20061;-37
2022/05/10 00:42:33;;;;;;;4.97;3.10;;;14.40;79.30;;;;;;5078797;28;20037;-37
2022/05/10 00:45:15;;;;;;;9.65;3.45;;;14.40;79.30;;;;;;5090854;28;20028;-37
2022/05/10 00:48:18;;;;;;;10.50;4.15;;;14.40;79.70;;;;;;5089864;28;20061;-37
2022/05/10 00:50:52;;;;;;;7.68;3.75;;;14.40;80.00;;;;;;5071941;28;20432;-37
2022/05/10 00:53:21;;;;;;;7.68;3.97;;;14.30;80.10;;;;;;5088333;28;20024;-37
2022/05/10 00:55:59;;;;;;;11.38;3.95;;;14.30;80.30;;;;;;5084984;28;20056;-37
2022/05/10 00:58:37;;;;;;;16.27;3.22;;;14.30;80.50;;;;;;5079472;28;20111;-37
2022/05/10 01:01:03;;;;;;;7.38;3.78;;;14.30;80.70;;;;;;5080985;28;20052;-37
2022/05/10 01:03:46;;;;;;;7.28;3.72;;;14.30;80.80;;;;;;5079842;28;20028;-37
2022/05/10 01:06:27;;;;;;;6.72;4.07;;;14.30;81.20;;;;;;5090933;28;20020;-37
2022/05/10 01:09:02;;;;;;;;;;;14.30;80.90;;;;;;5091290;28;20020;-37
2022/05/10 01:11:36;;;;;;;6.45;2.85;;;14.30;81.10;;;;;;5079627;28;19916;-37
2022/05/10 01:14:11;;;;;;;7.40;3.92;;;14.30;81.30;;;;;;5090565;28;20028;-37
2022/05/10 01:16:37;;;;;;;5.43;3.08;;;14.20;81.80;;;;;;5070181;28;20469;-37
2022/05/10 01:19:02;;;;;;;4.95;3.75;;;14.20;81.80;;;;;;5085986;28;20116;-37
2022/05/10 01:21:49;;;;;;;5.75;3.47;;;14.20;82.30;;;;;;5073502;28;20024;-37
2022/05/10 01:24:41;;;;;;;6.63;3.92;;;14.20;82.50;;;;;;5086406;28;20752;-37
2022/05/10 01:27:45;;;;;;;7.88;3.40;;;14.20;82.80;;;;;;5072692;28;20035;-37
2022/05/10 01:30:21;;;;;;;8.27;3.97;;;14.10;83.40;;;;;;5049521;28;20024;-36
2022/05/10 01:36:09;;;;;;;12.57;4.20;;;14.10;84.30;;;;;;5082043;28;20042;-37
2022/05/10 01:38:40;;;;;;;5.18;3.05;;;14.00;84.50;;;;;;5081535;28;20505;-37
2022/05/10 01:41:36;;;;;;;7.03;3.40;;;14.00;84.80;;;;;;5083515;28;20071;-37
2022/05/10 01:44:45;;;;;;;9.32;4.10;;;14.00;85.00;;;;;;5081096;28;20024;-37
2022/05/10 01:47:37;;;;;;;6.88;3.85;;;14.00;85.80;;;;;;5081398;28;20051;-37
2022/05/10 01:50:21;;;;;;;9.52;3.28;;;14.00;86.10;;;;;;5085237;28;20077;-37
2022/05/10 01:53:07;;;;;;;7.10;3.60;;;13.90;87.20;;;;;;5078814;28;20056;-37
2022/05/10 01:55:41;;;;;;;6.35;4.55;;;13.90;88.40;;;;;;5089221;28;20278;-37
2022/05/10 01:58:11;;;;;;;5.18;2.97;;;13.90;88.80;;;;;;5075954;28;20055;-37
2022/05/10 02:00:38;;;;;;;4.82;3.40;;;13.80;90.30;;;;;;5073581;28;20028;-37
2022/05/10 02:03:13;;;;;;;6.38;3.53;;;13.70;90.70;;;;;;5083083;28;20060;-37
2022/05/10 02:06:10;;;;;;;4.50;3.35;;;13.60;91.20;;;;;;5073879;28;20186;-36
2022/05/10 02:08:47;;;;;;;5.15;3.22;;;13.60;91.80;;;;;;5077270;28;20457;-36
2022/05/10 02:11:15;;;;;;;7.00;3.47;;;13.50;92.80;;;;;;5080709;28;20032;-36
2022/05/10 02:13:54;;;;;;;7.10;3.47;;;13.40;94.00;;;;;;5086888;28;20032;-36
2022/05/10 02:16:40;;;;;;;8.00;3.40;;;13.30;94.70;;;;;;5080876;28;20478;-36
2022/05/10 02:19:30;;;;;;;8.35;3.45;;;13.20;96.00;;;;;;5079423;28;20033;-36
2022/05/10 02:21:59;;;;;;;4.95;3.30;;;13.20;96.80;;;;;;5071193;28;20029;-36
2022/05/10 02:24:40;;;;;;;6.80;4.03;;;13.10;97.20;;;;;;5065575;28;20032;-36
2022/05/10 02:27:15;;;;;;;8.43;4.30;;;13.10;97.80;;;;;;5080671;28;20032;-36
2022/05/10 02:29:46;;;;;;;6.28;3.67;;;13.10;98.90;;;;;;5078721;28;20036;-36
2022/05/10 02:35:10;;;;;;;8.27;4.20;;;13.00;99.90;;;;;;5089569;28;20035;-36
2022/05/10 02:37:35;;;;;;;7.80;4.07;;;12.90;99.90;;;;;;5068555;28;20056;-36
2022/05/10 02:40:02;;;;;;;8.38;4.75;;;12.90;99.90;;;;;;5084773;28;20478;-36
2022/05/10 02:42:28;;;;;;;5.05;3.75;;;12.80;99.90;;;;;;5077058;28;20024;-37
2022/05/10 02:44:55;;;;;;;5.82;3.97;;;12.70;99.90;;;;;;5083480;28;20027;-36
2022/05/10 02:47:36;;;;;;;6.53;4.75;;;12.70;99.90;;;;;;5066166;28;20021;-36
2022/05/10 02:50:03;;;;;;;5.55;3.95;;;12.50;99.90;;;;;;5060952;28;20481;-36
2022/05/10 02:52:29;;;;;;;8.63;4.55;;;12.50;99.90;;;;;;5061027;28;20047;-36
2022/05/10 02:55:01;;;;;;;6.30;4.07;;;12.30;99.90;;;;;;5061839;28;20490;-37
2022/05/10 02:57:28;;;;;;;6.78;4.50;;;12.30;99.90;;;;;;5059941;28;20027;-36
2022/05/10 02:59:57;;;;;;;7.22;4.57;;;12.20;99.90;;;;;;5061970;28;20044;-37
2022/05/10 03:02:27;;;;;;;9.43;4.43;;;12.10;99.90;;;;;;5056363;28;20478;-36
2022/05/10 03:04:56;;;;;;;6.85;3.75;;;12.10;99.90;;;;;;5065784;28;20032;-36
2022/05/10 03:07:22;;;;;;;6.18;4.03;;;12.00;99.90;;;;;;5058583;28;20079;-37
2022/05/10 03:09:48;;;;;;;8.18;4.13;;;11.90;99.90;;;;;;5065422;28;20020;-37
2022/05/10 03:12:13;;;;;;;10.98;5.15;;;11.80;99.90;;;;;;5061773;28;20023;-37
2022/05/10 03:14:39;;;;;;;8.57;4.50;;;11.80;99.90;;;;;;5073105;28;20445;-37
2022/05/10 03:17:04;;;;;;;6.22;4.07;;;11.80;99.90;;;;;;5072578;28;20109;-37
2022/05/10 03:19:31;;;;;;;5.53;4.35;;;11.70;99.90;;;;;;5072793;28;20027;-37
2022/05/10 03:21:56;;;;;;;6.25;4.28;;;11.60;99.90;;;;;;5082579;28;20031;-37
2022/05/10 03:24:22;;;;;;;6.82;4.32;;;11.60;99.90;;;;;;5080479;28;20362;-37
2022/05/10 03:26:50;;;;;;;7.95;4.22;;;11.60;99.90;;;;;;5081983;28;20082;-37
2022/05/10 03:29:16;;;;;;;6.47;4.10;;;11.50;99.90;;;;;;5072286;28;20021;-37
2022/05/10 03:31:43;;;;;;;6.03;4.65;;;11.50;99.90;;;;;;5079396;28;20401;-37
2022/05/10 03:36:53;;;;;;;7.88;4.35;;;11.40;99.90;;;;;;5070704;28;20067;-38
2022/05/10 03:39:18;;;;;;;7.03;5.40;;;11.30;99.90;;;;;;5066411;28;20025;-37
2022/05/10 03:41:44;;;;;;;8.18;4.00;;;11.30;99.90;;;;;;5068546;28;20116;-37
2022/05/10 03:44:09;;;;;;;5.70;4.28;;;11.30;99.90;;;;;;5063978;28;20098;-37
2022/05/10 03:46:35;;;;;;;7.03;5.05;;;11.30;99.90;;;;;;5061023;28;20409;-37
2022/05/10 03:49:00;;;;;;;5.95;5.13;;;11.20;99.90;;;;;;5057932;28;20017;-37
2022/05/10 03:51:28;;;;;;;7.95;5.50;;;11.30;99.90;;;;;;5064891;28;20052;-37
2022/05/10 03:53:54;;;;;;;7.55;4.65;;;11.20;99.90;;;;;;5061165;28;20143;-37
2022/05/10 03:56:19;;;;;;;9.52;5.18;;;11.20;99.90;;;;;;5064027;28;20686;-38
2022/05/10 03:58:45;;;;;;;10.57;5.07;;;11.20;99.90;;;;;;5064569;28;20033;-38
2022/05/10 04:01:10;;;;;;;9.20;4.63;;;11.20;99.90;;;;;;5062426;28;20020;-38
2022/05/10 04:03:36;;;;;;;8.65;5.45;;;11.20;99.90;;;;;;5080091;28;20026;-38
2022/05/10 04:06:03;;;;;;;8.55;5.07;;;11.20;99.90;;;;;;5080657;28;20017;-38
2022/05/10 04:08:30;;;;;;;9.55;5.85;;;11.30;99.90;;;;;;5081683;28;20012;-38
2022/05/10 04:11:01;;;;;;;6.07;4.75;;;11.30;99.90;;;;;;5088257;28;20101;-38
2022/05/10 04:13:26;;;;;;;9.38;5.20;;;11.30;99.90;;;;;;5080323;28;20091;-38
2022/05/10 04:15:52;;;;;;;10.43;5.68;;;11.30;99.90;;;;;;5075790;28;20119;-38
2022/05/10 04:18:18;;;;;;;10.13;4.90;;;11.40;99.90;;;;;;5078199;28;20025;-38
2022/05/10 04:20:45;;;;;;;8.25;5.13;;;11.40;99.90;;;;;;5092030;28;20056;-38
2022/05/10 04:23:11;;;;;;;7.40;5.00;;;11.40;99.90;;;;;;5076144;28;20051;-38
2022/05/10 04:25:36;;;;;;;11.02;4.70;;;11.50;99.90;;;;;;5090447;28;20012;-38
2022/05/10 04:28:04;;;;;;;8.75;5.57;;;11.60;99.90;;;;;;5073626;28;20020;-38
2022/05/10 04:30:30;;;;;;;9.80;5.10;;;11.60;99.90;;;;;;5075951;28;20048;-38
2022/05/10 04:32:55;;;;;;;12.13;5.43;;;11.70;99.90;;;;;;5064954;28;20056;-38
2022/05/10 04:35:21;;;;;;;7.05;5.40;;;11.80;99.90;;;;;;5072305;28;20024;-38
2022/05/10 04:37:46;;;;;;;8.82;4.78;;;11.90;99.90;;;;;;5070106;28;20028;-38
2022/05/10 04:42:56;;;;;;;9.45;5.80;;;11.90;99.90;;;;;;5080752;28;20038;-38
2022/05/10 04:45:22;;;;;;;8.93;4.90;;;12.00;99.90;;;;;;5077962;28;20477;-38
2022/05/10 04:47:47;;;;;;;10.75;5.97;;;12.00;99.90;;;;;;5084562;28;20028;-38
2022/05/10 04:50:13;;;;;;;10.90;5.00;;;12.10;99.90;;;;;;5084657;28;20095;-38
2022/05/10 04:52:39;;;;;;;8.88;5.97;;;12.20;99.90;;;;;;5075820;28;20108;-38
2022/05/10 04:55:08;;;;;;;13.50;5.45;;;12.30;99.90;;;;;;5065588;28;20118;-38
2022/05/10 04:57:38;;;;;;;8.90;4.95;;;12.30;99.90;;;;;;5062131;28;20024;-37
2022/05/10 05:00:05;;;;;;;12.93;6.22;;;12.40;99.90;;;;;;5069552;28;20070;-38
2022/05/10 05:02:31;;;;;;;11.77;5.88;;;12.50;99.90;;;;;;5077611;28;20025;-38
2022/05/10 05:04:56;;;;;;;8.05;5.30;;;12.60;99.90;;;;;;5073315;28;20040;-38
2022/05/10 05:07:22;;;;;;;7.25;5.35;;;12.70;99.90;;;;;;5089168;28;20377;-38
2022/05/10 05:09:47;;;;;;;9.27;5.60;;;12.80;99.90;;;;;;5078540;28;20067;-38
2022/05/10 05:12:13;;;;;;;9.20;5.20;;;12.90;99.90;;;;;;5064365;28;20036;-38
2022/05/10 05:14:38;;;;;;;10.20;5.13;;;13.10;99.90;;;;;;5058455;28;20017;-37
2022/05/10 05:17:04;;;;;;;11.35;5.72;;;13.30;99.90;;;;;;5064076;28;20100;-38
2022/05/10 05:19:30;;;;;;;9.90;5.45;;;13.40;99.90;;;;;;5061199;28;20029;-38
2022/05/10 05:21:55;;;;;;;9.13;6.05;;;13.50;99.90;;;;;;5060048;28;20398;-38
2022/05/10 05:24:21;;;;;;;12.07;7.63;;;13.70;99.90;;;;;;5069191;28;20044;-37
2022/05/10 05:26:47;;;;;;;11.25;7.07;;;13.80;99.90;;;;;;5072355;28;20021;-38
2022/05/10 05:29:13;;;;;;;11.10;6.28;;;13.90;99.90;;;;;;5077860;28;20025;-38
2022/05/10 05:31:39;;;;;;;9.85;5.75;;;14.10;99.90;;;;;;5073005;28;20027;-35
2022/05/10 05:34:05;;;;;;;10.35;5.68;;;14.20;99.90;;;;;;5085702;28;20028;-38
2022/05/10 05:36:30;;;;;;;8.80;5.25;;;14.30;99.90;;;;;;5070747;28;20028;-35
2022/05/10 05:38:56;;;;;;;12.05;5.82;;;14.50;99.90;;;;;;5061268;28;20497;-35
2022/05/10 05:41:21;;;;;;;7.40;4.43;;;14.60;99.90;;;;;;5058934;28;20016;-38
2022/05/10 05:43:47;;;;;;;7.20;5.35;;;14.70;99.90;;;;;;5070174;28;20119;-38
2022/05/10 05:46:13;;;;;;;10.48;5.47;;;14.80;99.90;;;;;;5075867;28;20029;-38
2022/05/10 05:48:38;;;;;;;13.48;5.88;;;14.90;99.90;;;;;;5081431;28;20012;-38
2022/05/10 05:51:04;;;;;;;9.15;4.30;;;14.90;99.90;;;;;;5084305;28;20021;-38
2022/05/10 05:53:30;;;;;;;11.23;5.00;;;15.00;99.90;;;;;;5079300;28;20056;-35
2022/05/10 05:56:03;;;;;;;8.05;4.18;;;15.00;99.90;;;;;;5089433;28;20067;-35
2022/05/10 05:58:30;;;;;;;7.88;4.43;;;15.10;99.90;;;;;;5079585;28;20021;-35
2022/05/10 06:00:56;;;;;;;10.63;4.60;;;15.10;99.90;;;;;;5089707;28;20056;-35
2022/05/10 06:03:22;;;;;;;11.32;4.78;;;15.20;99.90;;;;;;5077278;28;20028;-35
2022/05/10 06:05:49;;;;;;;8.13;4.47;;;15.20;99.90;;;;;;5082923;28;20028;-35
2022/05/10 06:08:16;;;;;;;7.70;4.30;;;15.30;99.90;;;;;;5074493;28;20081;-35
2022/05/10 06:10:42;;;;;;;15.20;5.20;;;15.40;99.90;;;;;;5081371;28;20554;-35
2022/05/10 06:13:08;;;;;;;9.02;4.93;;;15.50;99.90;;;;;;5083007;28;20024;-35
2022/05/10 06:15:34;;;;;;;10.38;4.28;;;15.60;99.90;;;;;;5080987;28;20020;-36
2022/05/10 06:17:59;;;;;;;11.73;4.50;;;15.80;99.90;;;;;;5075386;28;20036;-35
2022/05/10 06:20:25;;;;;;;9.70;4.57;;;16.00;99.90;;;;;;5077894;28;20451;-35
2022/05/10 06:22:51;;;;;;;8.90;4.45;;;16.10;99.90;;;;;;5078322;28;20486;-35
2022/05/10 06:25:19;;;;;;;8.25;4.18;;;16.30;99.90;;;;;;5075690;28;20024;-35
2022/05/10 06:27:47;;;;;;;11.23;4.13;;;16.50;99.90;;;;;;5089338;28;20035;-35
2022/05/10 06:30:13;;;;;;;8.07;3.63;;;16.80;99.30;;;;;;5078267;28;20071;-35
2022/05/10 06:32:39;;;;;;;6.28;3.75;;;17.10;98.70;;;;;;5088523;28;20121;-35
2022/05/10 06:35:06;;;;;;;5.85;3.30;;;17.30;98.00;;;;;;5074247;28;20512;-36
2022/05/10 06:40:17;;;;;;;7.05;3.40;;;17.60;97.10;;;;;;5075118;28;20034;-35
2022/05/10 06:42:43;;;;;;;9.10;4.00;;;17.90;96.60;;;;;;5081169;28;20020;-36
2022/05/10 06:45:13;;;;;;;6.53;3.70;;;18.00;96.00;;;;;;5081546;28;20031;-36
2022/05/10 06:47:42;;;;;;;8.52;3.22;;;18.20;95.60;;;;;;5072385;28;20109;-36
2022/05/10 06:50:11;;;;;;;26.27;15.95;;;18.40;95.40;;;;;;5083957;28;20020;-36
2022/05/10 06:52:37;;;;;;;13.40;7.50;;;18.60;95.00;;;;;;5072336;28;20023;-36
2022/05/10 06:55:03;;;;;;;11.60;3.92;;;18.80;94.40;;;;;;5072184;28;20017;-35
2022/05/10 06:57:29;;;;;;;10.18;3.45;;;18.90;94.10;;;;;;5065760;28;20380;-36
2022/05/10 06:59:54;;;;;;;7.13;3.63;;;19.00;94.00;;;;;;5073511;28;20024;-36
2022/05/10 07:02:21;;;;;;;9.02;3.13;;;19.20;93.50;;;;;;5079679;28;20025;-36
2022/05/10 07:04:47;;;;;;;7.75;3.38;;;19.30;93.20;;;;;;5077708;28;20513;-36
2022/05/10 07:07:12;;;;;;;7.30;3.40;;;19.50;93.00;;;;;;5074056;28;20024;-36
2022/05/10 07:09:38;;;;;;;6.88;3.55;;;19.60;92.70;;;;;;5080160;28;20021;-36
2022/05/10 07:12:03;;;;;;;6.25;3.10;;;19.70;92.80;;;;;;5071729;28;20172;-36
2022/05/10 07:14:29;;;;;;;7.07;3.38;;;19.90;92.50;;;;;;5088067;28;20028;-36
2022/05/10 07:16:55;;;;;;;10.10;3.45;;;20.00;92.60;;;;;;5074958;28;20387;-36
2022/05/10 07:19:20;;;;;;;7.20;2.83;;;20.10;92.30;;;;;;5087034;28;20177;-36
2022/05/10 07:21:49;;;;;;;8.60;3.72;;;20.10;92.50;;;;;;5077812;28;20478;-36
2022/05/10 07:24:16;;;;;;;5.78;3.58;;;20.10;91.90;;;;;;5089944;28;20073;-36
2022/05/10 07:26:45;;;;;;;5.03;3.08;;;20.20;91.80;;;;;;5077408;28;20031;-36
2022/05/10 07:29:10;;;;;;;10.00;3.78;;;20.30;91.80;;;;;;5083868;28;20027;-36
2022/05/10 07:31:36;;;;;;;5.00;3.13;;;20.30;91.00;;;;;;5076988;28;20017;-36
2022/05/10 07:34:01;;;;;;;6.68;3.30;;;20.40;90.80;;;;;;5084031;28;20178;-36
2022/05/10 07:36:33;;;;;;;8.43;3.38;;;20.60;91.30;;;;;;5090559;28;20071;-36
2022/05/10 07:39:09;;;;;;;6.03;3.97;;;20.90;90.60;;;;;;5084038;28;20016;-35
2022/05/10 07:41:36;;;;;;;10.10;3.28;;;21.00;88.90;;;;;;5092444;28;20024;-36
2022/05/10 07:44:02;;;;;;;9.13;3.60;;;21.30;87.80;;;;;;5092153;28;20031;-36
2022/05/10 07:46:27;;;;;;;8.48;3.65;;;21.40;86.90;;;;;;5092353;28;20020;-36
2022/05/10 07:48:53;;;;;;;7.85;3.95;;;21.50;84.90;;;;;;5092055;28;20439;-36
2022/05/10 07:51:21;;;;;;;8.35;3.40;;;21.70;84.00;;;;;;5091105;28;20266;-36
2022/05/10 07:53:46;;;;;;;9.82;4.05;;;21.80;82.10;;;;;;5091638;28;20474;-37
2022/05/10 07:56:12;;;;;;;8.35;3.47;;;21.90;80.00;;;;;;5091946;28;20028;-36
2022/05/10 07:58:38;;;;;;;8.30;3.63;;;22.00;79.50;;;;;;5070953;28;20060;-36
2022/05/10 08:01:04;;;;;;;7.88;3.42;;;22.10;79.80;;;;;;5087583;28;20528;-37
2022/05/10 08:03:31;;;;;;;6.47;3.45;;;22.30;79.30;;;;;;5091431;28;20051;-37
2022/05/10 08:05:57;;;;;;;4.50;3.47;;;22.50;77.90;;;;;;5091736;28;20534;-37
2022/05/10 08:08:24;;;;;;;5.40;3.72;;;22.60;78.30;;;;;;5080561;28;20043;-37
2022/05/10 08:10:51;;;;;;;11.98;3.30;;;22.90;77.40;;;;;;5091714;28;20028;-37
2022/05/10 08:13:19;;;;;;;9.13;3.63;;;23.20;75.80;;;;;;5072057;28;20031;-37
2022/05/10 08:15:45;;;;;;;6.00;3.35;;;23.10;76.00;;;;;;5084729;28;20556;-37
2022/05/10 08:18:11;;;;;;;7.78;3.65;;;23.20;74.70;;;;;;5091879;28;20143;-37
2022/05/10 08:20:37;;;;;;;8.77;4.20;;;23.60;74.70;;;;;;5089211;28;20020;-37
2022/05/10 08:23:04;;;;;;;5.95;3.72;;;23.90;73.10;;;;;;5082629;28;20469;-38
2022/05/10 08:25:29;;;;;;;10.55;3.28;;;24.20;72.10;;;;;;5091493;28;20238;-37
2022/05/10 08:27:55;;;;;;;6.80;3.50;;;24.60;72.10;;;;;;5077492;28;20511;-38
2022/05/10 08:30:21;;;;;;;4.38;3.28;;;25.00;68.40;;;;;;5083315;28;20407;-37
2022/05/10 08:32:46;;;;;;;3.83;3.33;;;25.30;68.40;;;;;;5082762;28;20066;-37
2022/05/10 08:35:12;;;;;;;7.00;3.33;;;26.10;66.80;;;;;;5082691;28;20066;-38
2022/05/10 08:37:37;;;;;;;6.50;3.33;;;26.10;64.90;;;;;;5091646;28;20443;-38
2022/05/10 08:40:15;;;;;;;7.88;3.45;;;26.00;64.20;;;;;;5073613;28;20031;-38
2022/05/10 08:42:47;;;;;;;12.05;3.33;;;25.80;64.80;;;;;;5050477;28;20555;-38
2022/05/10 08:45:13;;;;;;;4.95;3.30;;;25.90;64.90;;;;;;5049962;28;20025;-37
2022/05/10 08:47:41;;;;;;;9.43;4.05;;;26.20;63.20;;;;;;5071133;28;20027;-37
2022/05/10 08:50:10;;;;;;;8.07;3.72;;;25.60;64.80;;;;;;5087587;28;20027;-38
2022/05/10 08:52:39;;;;;;;5.32;4.05;;;25.20;65.00;;;;;;5082555;28;20023;-38
2022/05/10 08:55:08;;;;;;;10.02;3.55;;;25.30;65.50;;;;;;5087183;28;20377;-37
2022/05/10 08:57:49;;;;;;;5.78;3.65;;;25.40;64.90;;;;;;5089295;28;20031;-37
2022/05/10 09:00:43;;;;;;;6.35;3.38;;;25.40;65.40;;;;;;5082485;28;20028;-37
2022/05/10 09:03:29;;;;;;;5.70;3.40;;;25.80;65.10;;;;;;5089825;28;20135;-38
2022/05/10 09:06:02;;;;;;;6.40;3.38;;;26.00;64.10;;;;;;5073485;28;20020;-37
2022/05/10 09:09:05;;;;;;;5.05;3.20;;;26.20;64.00;;;;;;5081006;28;20473;-38
2022/05/10 09:11:42;;;;;;;5.40;3.00;;;26.60;63.60;;;;;;5062655;28;20024;-37
2022/05/10 09:14:11;;;;;;;5.65;3.00;;;26.70;63.10;;;;;;5065736;28;20021;-38
2022/05/10 09:16:36;;;;;;;4.05;3.63;;;26.30;62.70;;;;;;5061323;28;20474;-38
2022/05/10 09:19:02;;;;;;;6.90;3.03;;;26.00;63.20;;;;;;5063471;28;20485;-38
2022/05/10 09:21:54;;;;;;;8.18;3.80;;;25.60;63.90;;;;;;5068728;28;20623;-38
2022/05/10 09:24:53;;;;;;;4.95;3.65;;;25.50;64.70;;;;;;5061788;28;20040;-38
2022/05/10 09:27:21;;;;;;;4.43;3.15;;;25.70;64.40;;;;;;5062298;28;20017;-38
2022/05/10 09:29:52;;;;;;;8.13;3.58;;;25.80;64.20;;;;;;5067918;28;20098;-38
2022/05/10 09:35:17;;;;;;;8.00;3.50;;;25.90;64.20;;;;;;5068376;28;20059;-38
2022/05/10 09:37:48;;;;;;;4.75;3.50;;;26.70;62.80;;;;;;5064541;28;20082;-38
2022/05/10 09:40:34;;;;;;;7.10;3.58;;;27.80;60.30;;;;;;5066596;28;20032;-38
2022/05/10 09:43:15;;;;;;;6.80;3.40;;;28.90;58.90;;;;;;5059464;28;20459;-39
2022/05/10 09:45:42;;;;;;;5.32;3.10;;;29.20;55.70;;;;;;5065804;28;20482;-38
2022/05/10 09:48:07;;;;;;;3.58;3.20;;;30.20;55.50;;;;;;5062393;28;20073;-39
2022/05/10 09:50:58;;;;;;;3.90;3.40;;;30.80;52.50;;;;;;5062267;28;20053;-39
2022/05/10 09:53:33;;;;;;;5.82;3.80;;;30.40;51.70;;;;;;5066466;28;20040;-39
2022/05/10 09:56:10;;;;;;;4.93;2.97;;;30.80;51.50;;;;;;5061742;28;20020;-39
2022/05/10 09:58:40;;;;;;;5.75;3.42;;;31.30;51.60;;;;;;5061508;28;20029;-39
2022/05/10 10:01:10;;;;;;;6.55;3.22;;;31.70;51.40;;;;;;5057172;28;20029;-38
2022/05/10 10:03:42;;;;;;;5.38;3.35;;;31.10;49.10;;;;;;5064720;28;20173;-38
2022/05/10 10:06:17;;;;;;;4.55;3.10;;;31.50;49.90;;;;;;5058388;28;20078;-38
2022/05/10 10:08:51;;;;;;;3.70;3.20;;;31.40;49.60;;;;;;5057933;28;20028;-38
2022/05/10 10:11:32;;;;;;;4.45;2.83;;;31.10;49.50;;;;;;5059772;28;20024;-38
2022/05/10 10:14:09;;;;;;;4.30;3.22;;;30.40;50.70;;;;;;5065120;28;20024;-38
2022/05/10 10:16:50;;;;;;;4.55;3.50;;;29.60;51.40;;;;;;5061770;28;20039;-39
2022/05/10 10:19:22;;;;;;;6.78;3.50;;;29.20;52.90;;;;;;5065627;28;20036;-38
2022/05/10 10:21:54;;;;;;;4.63;3.58;;;28.90;52.80;;;;;;5057147;28;20044;-38
2022/05/10 10:24:30;;;;;;;6.40;3.88;;;29.30;51.50;;;;;;5062581;28;20025;-38
2022/05/10 10:27:02;;;;;;;7.53;3.83;;;29.10;51.90;;;;;;5062737;28;20016;-38
2022/05/10 10:29:41;;;;;;;4.72;3.55;;;30.20;50.80;;;;;;5056331;28;20499;-38
2022/05/10 10:32:15;;;;;;;6.20;3.38;;;29.80;51.00;;;;;;5060137;28;20072;-38
2022/05/10 10:34:49;;;;;;;5.45;3.95;;;30.10;50.40;;;;;;5061636;28;20246;-38
2022/05/10 10:37:38;;;;;;;5.60;3.67;;;29.30;50.00;;;;;;5057249;28;20058;-38
2022/05/10 10:40:30;;;;;;;5.60;3.45;;;29.20;52.10;;;;;;5065495;28;20493;-38
2022/05/10 10:43:29;;;;;;;4.18;3.22;;;29.60;51.30;;;;;;5057836;28;20031;-38
2022/05/10 10:46:03;;;;;;;7.38;3.72;;;30.80;48.70;;;;;;5061060;28;20028;-38
2022/05/10 10:48:40;;;;;;;6.28;3.08;;;30.70;49.70;;;;;;5056499;28;20013;-38
2022/05/10 10:51:06;;;;;;;4.75;3.40;;;31.40;49.40;;;;;;5056458;28;20501;-38
2022/05/10 10:53:34;;;;;;;6.95;3.30;;;32.00;48.00;;;;;;5067295;28;20024;-39
2022/05/10 10:56:14;;;;;;;7.35;3.17;;;33.60;47.50;;;;;;5057475;28;20012;-39
2022/05/10 10:58:48;;;;;;;7.25;3.15;;;34.40;46.60;;;;;;5058055;28;20505;-39
2022/05/10 11:01:46;;;;;;;4.53;3.08;;;34.50;44.40;;;;;;5060920;28;20109;-39
2022/05/10 11:04:35;;;;;;;5.65;3.22;;;34.00;45.10;;;;;;5060401;28;20478;-39
2022/05/10 11:07:12;;;;;;;4.53;2.78;;;34.00;44.20;;;;;;5063211;28;20440;-38
2022/05/10 11:09:47;;;;;;;6.82;2.95;;;34.20;44.90;;;;;;5060400;28;20028;-39
2022/05/10 11:12:53;;;;;;;6.53;3.17;;;31.00;48.00;;;;;;5070193;28;20025;-39
2022/05/10 11:15:30;;;;;;;6.53;3.47;;;32.30;45.30;;;;;;5084270;28;20497;-39
2022/05/10 11:18:12;;;;;;;5.40;3.13;;;31.10;46.50;;;;;;5075185;28;20486;-38
2022/05/10 11:20:43;;;;;;;7.82;3.22;;;31.80;46.80;;;;;;5086708;28;20119;-38
2022/05/10 11:23:13;;;;;;;5.38;3.72;;;31.10;47.90;;;;;;5074391;28;20466;-38
2022/05/10 11:25:59;;;;;;;6.97;3.70;;;31.20;47.50;;;;;;5075749;28;20461;-38
2022/05/10 11:28:46;;;;;;;8.40;3.53;;;31.40;47.60;;;;;;5070699;28;20054;-38
2022/05/10 11:31:37;;;;;;;3.70;3.25;;;32.10;46.20;;;;;;5082431;28;20481;-38
2022/05/10 11:34:36;;;;;;;5.90;4.07;;;31.40;45.50;;;;;;5069540;28;20059;-39
2022/05/10 11:37:06;;;;;;;7.17;3.90;;;31.00;47.90;;;;;;5051259;28;20056;-38
2022/05/10 11:39:59;;;;;;;8.00;3.72;;;29.70;47.20;;;;;;5052180;28;20274;-38
2022/05/10 11:42:32;;;;;;;5.47;3.20;;;29.20;48.50;;;;;;5067163;28;20016;-38
2022/05/10 11:45:33;;;;;;;6.93;3.63;;;29.00;50.60;;;;;;5054755;28;20033;-38
2022/05/10 11:48:22;;;;;;;7.88;3.47;;;29.30;50.40;;;;;;5068317;28;20032;-38
2022/05/10 11:54:38;;;;;;;4.60;3.40;;;30.10;48.50;;;;;;5070742;28;20351;-37
2022/05/10 11:57:14;;;;;;;6.90;3.65;;;30.40;47.80;;;;;;5068085;28;20016;-37
2022/05/10 11:59:42;;;;;;;5.45;3.70;;;30.00;47.40;;;;;;5059608;28;20611;-37
2022/05/10 12:02:31;;;;;;;5.03;3.67;;;29.00;48.90;;;;;;5060856;28;20060;-38
2022/05/10 12:05:19;;;;;;;6.60;3.85;;;29.60;49.10;;;;;;5057453;28;20045;-37
2022/05/10 12:07:49;;;;;;;7.65;3.47;;;29.30;48.60;;;;;;5058709;28;20090;-37
2022/05/10 12:10:42;;;;;;;5.13;3.60;;;29.20;49.30;;;;;;5065349;28;20516;-37
2022/05/10 12:22:12;;;;;;;20.00;15.73;;;28.50;49.40;;;;;;5090687;28;20659;-37
2022/05/10 12:24:45;;;;;;;6.80;3.78;;;28.40;50.60;;;;;;5091250;28;20028;-37
2022/05/10 12:27:11;;;;;;;4.53;3.20;;;28.30;48.50;;;;;;5075956;28;20039;-37
2022/05/10 12:29:39;;;;;;;6.50;3.58;;;28.20;48.60;;;;;;5082529;28;20020;-41
2022/05/10 12:32:17;;;;;;;6.47;3.72;;;28.10;50.00;;;;;;5085514;28;20027;-37
2022/05/10 12:34:57;;;;;;;4.97;3.80;;;28.10;49.50;;;;;;5065586;28;20024;-37
2022/05/10 12:37:24;;;;;;;5.50;3.43;;;27.80;50.80;;;;;;5061314;28;20023;-37
2022/05/10 12:39:55;;;;;;;5.40;3.55;;;28.00;51.20;;;;;;5069656;28;20255;-37
2022/05/10 12:42:31;;;;;;;3.58;3.20;;;28.10;50.40;;;;;;5060453;28;20050;-37
2022/05/10 12:45:13;;;;;;;4.35;3.80;;;28.10;50.00;;;;;;5066714;28;20119;-37
2022/05/10 12:47:57;;;;;;;6.38;3.75;;;28.40;50.50;;;;;;5057123;28;20029;-37
2022/05/10 12:50:54;;;;;;;6.78;3.55;;;28.40;49.40;;;;;;5069757;28;20017;-37
2022/05/10 12:53:54;;;;;;;4.90;3.25;;;28.20;49.70;;;;;;5056999;28;20096;-37
2022/05/10 12:56:26;;;;;;;4.30;3.88;;;27.90;50.10;;;;;;5080455;28;20028;-37
2022/05/10 12:59:15;;;;;;;9.98;3.80;;;28.20;50.40;;;;;;5082690;28;20356;-38
2022/05/10 13:01:41;;;;;;;5.57;3.60;;;28.10;49.70;;;;;;5070739;28;20023;-37
2022/05/10 13:04:16;;;;;;;6.00;3.47;;;28.20;50.60;;;;;;5063958;28;20029;-37
2022/05/10 13:07:06;;;;;;;5.28;3.42;;;28.20;49.80;;;;;;5071167;28;20031;-38
2022/05/10 13:09:58;;;;;;;;;;;28.40;50.80;;;;;;5068162;28;20431;-38
2022/05/10 13:12:28;;;;;;;3.60;3.30;;;28.30;49.90;;;;;;5081452;28;19911;-37
2022/05/10 13:15:02;;;;;;;7.20;3.78;;;28.50;49.70;;;;;;5082162;28;20059;-37
2022/05/10 13:17:31;;;;;;;6.38;3.40;;;28.30;50.80;;;;;;5083349;28;20028;-37
2022/05/10 13:19:58;;;;;;;4.95;3.40;;;28.20;50.70;;;;;;5086329;28;20488;-37
2022/05/10 13:22:25;;;;;;;5.97;4.00;;;27.90;50.40;;;;;;5081206;28;20059;-37
2022/05/10 13:24:55;;;;;;;8.07;4.07;;;27.50;50.80;;;;;;5089985;28;20051;-37
2022/05/10 13:27:29;;;;;;;7.65;3.70;;;27.30;52.00;;;;;;5082664;28;20024;-37
2022/05/10 13:29:57;;;;;;;5.32;4.18;;;27.30;52.20;;;;;;5078177;28;20056;-37
2022/05/10 13:32:52;;;;;;;5.20;4.10;;;27.10;52.20;;;;;;5079002;28;20043;-37
2022/05/10 13:35:32;;;;;;;7.05;4.50;;;27.00;53.50;;;;;;5073271;28;20033;-37
2022/05/10 13:38:11;;;;;;;5.63;3.75;;;27.00;53.00;;;;;;5074834;28;20028;-37
2022/05/10 13:40:45;;;;;;;4.10;3.30;;;26.90;52.10;;;;;;5065618;28;20619;-37